UAE384 VTBS-VHHH
Flight info
| Callsign | UAE384 |
|---|---|
| Flight time | 2h 8m |
| Altitude | 39000 |
| Route | SELKA1E SELKA A1 TOPER W42 RAMEI A202 VILAO/K0870F390 A202 ASSAD/K0870S1190 A202 SIKOU/N0468F390 V571 GAMBA V561 MAPLE V571 COMBI V561 ROCCA V571 CANTO |
| Aircraft | A388/J-SADE2E3FGHIJ3J4J5M1RWXY/LB1D1 |
Departure
| Time | 2026-05-07 08:38 |
|---|---|
| Airport | Suvarnabhumi Airport (VTBS) |
Arrival
| Time | 2026-05-07 10:46 |
|---|---|
| Airport | Hong Kong International Airport (VHHH) |
| Time | Latitude | Longitude | Altitude | Speed | Heading |
|---|---|---|---|---|---|
| 2026-05-07 08:11 | 13.68128 | 100.74820 | 18 ft | 0 kts | 14° |
| 2026-05-07 08:19 | 13.68127 | 100.74820 | 18 ft | 0 kts | 14° |
| 2026-05-07 08:25 | 13.68118 | 100.74818 | 18 ft | 4 kts | 14° |
| 2026-05-07 08:25 | 13.68092 | 100.74811 | 19 ft | 4 kts | 14° |
| 2026-05-07 08:26 | 13.68046 | 100.74804 | 22 ft | 4 kts | 316° |
| 2026-05-07 08:26 | 13.68033 | 100.74827 | 22 ft | 4 kts | 286° |
| 2026-05-07 08:26 | 13.68029 | 100.74842 | 22 ft | 1 kts | 284° |
| 2026-05-07 08:28 | 13.68031 | 100.74835 | 22 ft | 4 kts | 285° |
| 2026-05-07 08:28 | 13.68044 | 100.74785 | 23 ft | 10 kts | 285° |
| 2026-05-07 08:28 | 13.68065 | 100.74703 | 18 ft | 14 kts | 285° |
| 2026-05-07 08:29 | 13.68092 | 100.74597 | 19 ft | 17 kts | 284° |
| 2026-05-07 08:29 | 13.68123 | 100.74474 | 18 ft | 19 kts | 284° |
| 2026-05-07 08:29 | 13.68156 | 100.74343 | 21 ft | 19 kts | 284° |
| 2026-05-07 08:29 | 13.68189 | 100.74208 | 19 ft | 20 kts | 284° |
| 2026-05-07 08:30 | 13.68210 | 100.74121 | 20 ft | 8 kts | 284° |
| 2026-05-07 08:30 | 13.68225 | 100.74071 | 19 ft | 3 kts | 322° |
| 2026-05-07 08:30 | 13.68258 | 100.74061 | 22 ft | 7 kts | 5° |
| 2026-05-07 08:30 | 13.68320 | 100.74073 | 20 ft | 12 kts | 15° |
| 2026-05-07 08:31 | 13.68415 | 100.74099 | 22 ft | 17 kts | 15° |
| 2026-05-07 08:31 | 13.68540 | 100.74129 | 21 ft | 20 kts | 13° |
| 2026-05-07 08:31 | 13.68606 | 100.74145 | 21 ft | 2 kts | 14° |
| 2026-05-07 08:31 | 13.68640 | 100.74155 | 21 ft | 8 kts | 14° |
| 2026-05-07 08:32 | 13.68686 | 100.74139 | 21 ft | 8 kts | 307° |
| 2026-05-07 08:32 | 13.68701 | 100.74101 | 20 ft | 4 kts | 310° |
| 2026-05-07 08:32 | 13.68733 | 100.74083 | 22 ft | 6 kts | 354° |
| 2026-05-07 08:32 | 13.68791 | 100.74094 | 23 ft | 11 kts | 15° |
| 2026-05-07 08:33 | 13.68884 | 100.74120 | 23 ft | 16 kts | 15° |
| 2026-05-07 08:33 | 13.69009 | 100.74155 | 21 ft | 21 kts | 15° |
| 2026-05-07 08:33 | 13.69160 | 100.74195 | 20 ft | 24 kts | 14° |
| 2026-05-07 08:33 | 13.69308 | 100.74233 | 18 ft | 23 kts | 13° |
| 2026-05-07 08:34 | 13.69473 | 100.74273 | 18 ft | 26 kts | 13° |
| 2026-05-07 08:34 | 13.69650 | 100.74323 | 20 ft | 27 kts | 14° |
| 2026-05-07 08:34 | 13.69814 | 100.74364 | 20 ft | 23 kts | 13° |
| 2026-05-07 08:34 | 13.69978 | 100.74407 | 21 ft | 25 kts | 15° |
| 2026-05-07 08:35 | 13.70152 | 100.74454 | 22 ft | 27 kts | 13° |
| 2026-05-07 08:35 | 13.70244 | 100.74477 | 21 ft | 9 kts | 14° |
| 2026-05-07 08:36 | 13.70297 | 100.74485 | 21 ft | 8 kts | 344° |
| 2026-05-07 08:36 | 13.70330 | 100.74454 | 21 ft | 8 kts | 298° |
| 2026-05-07 08:36 | 13.70345 | 100.74393 | 22 ft | 10 kts | 268° |
| 2026-05-07 08:36 | 13.70324 | 100.74327 | 22 ft | 10 kts | 230° |
| 2026-05-07 08:37 | 13.70265 | 100.74286 | 22 ft | 11 kts | 191° |
| 2026-05-07 08:37 | 13.70081 | 100.74241 | 22 ft | 65 kts | 194° |
| 2026-05-07 08:37 | 13.69387 | 100.74060 | 16 ft | 135 kts | 194° |
| 2026-05-07 08:37 | 13.68373 | 100.73792 | 290 ft | 156 kts | 195° |
| 2026-05-07 08:38 | 13.67294 | 100.73517 | 871 ft | 162 kts | 194° |
| 2026-05-07 08:38 | 13.66184 | 100.73225 | 1363 ft | 165 kts | 194° |
| 2026-05-07 08:38 | 13.65059 | 100.72918 | 1795 ft | 173 kts | 195° |
| 2026-05-07 08:38 | 13.63843 | 100.72590 | 2044 ft | 190 kts | 194° |
| 2026-05-07 08:39 | 13.62488 | 100.72229 | 2181 ft | 212 kts | 194° |
| 2026-05-07 08:39 | 13.61006 | 100.71823 | 2381 ft | 236 kts | 194° |
| 2026-05-07 08:39 | 13.59361 | 100.71385 | 2635 ft | 256 kts | 193° |
| 2026-05-07 08:39 | 13.57565 | 100.70920 | 3032 ft | 270 kts | 192° |
| 2026-05-07 08:40 | 13.55748 | 100.70422 | 3773 ft | 274 kts | 200° |
| 2026-05-07 08:40 | 13.54145 | 100.69333 | 4589 ft | 283 kts | 226° |
| 2026-05-07 08:40 | 13.53126 | 100.67579 | 5375 ft | 291 kts | 252° |
| 2026-05-07 08:40 | 13.52952 | 100.65545 | 6283 ft | 288 kts | 279° |
| 2026-05-07 08:41 | 13.53456 | 100.63543 | 7022 ft | 294 kts | 289° |
| 2026-05-07 08:41 | 13.54148 | 100.61542 | 7698 ft | 300 kts | 291° |
| 2026-05-07 08:41 | 13.54932 | 100.59572 | 8616 ft | 296 kts | 302° |
| 2026-05-07 08:41 | 13.56307 | 100.58017 | 9328 ft | 298 kts | 327° |
| 2026-05-07 08:42 | 13.58207 | 100.57168 | 9860 ft | 301 kts | 350° |
| 2026-05-07 08:42 | 13.60284 | 100.57059 | 9999 ft | 299 kts | 4° |
| 2026-05-07 08:42 | 13.62401 | 100.57184 | 9996 ft | 317 kts | 6° |
| 2026-05-07 08:42 | 13.64675 | 100.57421 | 10052 ft | 337 kts | 13° |
| 2026-05-07 08:43 | 13.66824 | 100.58204 | 10530 ft | 342 kts | 28° |
| 2026-05-07 08:43 | 13.68790 | 100.59601 | 11211 ft | 342 kts | 41° |
| 2026-05-07 08:43 | 13.70621 | 100.61201 | 11811 ft | 347 kts | 41° |
| 2026-05-07 08:43 | 13.72471 | 100.62800 | 12424 ft | 350 kts | 44° |
| 2026-05-07 08:44 | 13.73979 | 100.64761 | 13131 ft | 350 kts | 59° |
| 2026-05-07 08:44 | 13.75203 | 100.66957 | 13722 ft | 356 kts | 61° |
| 2026-05-07 08:44 | 13.76412 | 100.69190 | 14300 ft | 359 kts | 61° |
| 2026-05-07 08:44 | 13.77635 | 100.71440 | 14975 ft | 363 kts | 62° |
| 2026-05-07 08:45 | 13.78883 | 100.73718 | 15556 ft | 367 kts | 61° |
| 2026-05-07 08:45 | 13.80154 | 100.75998 | 16127 ft | 370 kts | 61° |
| 2026-05-07 08:45 | 13.81448 | 100.78303 | 16711 ft | 373 kts | 61° |
| 2026-05-07 08:45 | 13.82739 | 100.80604 | 17232 ft | 378 kts | 61° |
| 2026-05-07 08:46 | 13.84055 | 100.82954 | 17864 ft | 380 kts | 61° |
| 2026-05-07 08:46 | 13.85376 | 100.85325 | 18306 ft | 384 kts | 61° |
| 2026-05-07 08:46 | 13.86731 | 100.87749 | 18782 ft | 387 kts | 61° |
| 2026-05-07 08:46 | 13.88071 | 100.90140 | 19280 ft | 388 kts | 61° |
| 2026-05-07 08:47 | 13.89425 | 100.92556 | 19736 ft | 392 kts | 61° |
| 2026-05-07 08:47 | 13.90790 | 100.94996 | 20230 ft | 394 kts | 61° |
| 2026-05-07 08:47 | 13.92164 | 100.97456 | 20670 ft | 397 kts | 61° |
| 2026-05-07 08:47 | 13.93545 | 100.99929 | 21095 ft | 399 kts | 61° |
| 2026-05-07 08:48 | 13.94929 | 101.02409 | 21557 ft | 402 kts | 61° |
| 2026-05-07 08:48 | 13.96325 | 101.04912 | 21976 ft | 405 kts | 61° |
| 2026-05-07 08:48 | 13.97733 | 101.07435 | 22375 ft | 408 kts | 61° |
| 2026-05-07 08:48 | 13.99154 | 101.09984 | 22807 ft | 410 kts | 61° |
| 2026-05-07 08:49 | 14.00576 | 101.12533 | 23231 ft | 413 kts | 61° |
| 2026-05-07 08:49 | 14.02009 | 101.15106 | 23584 ft | 415 kts | 61° |
| 2026-05-07 08:49 | 14.03446 | 101.17685 | 23929 ft | 418 kts | 61° |
| 2026-05-07 08:49 | 14.04881 | 101.20262 | 24253 ft | 420 kts | 61° |
| 2026-05-07 08:50 | 14.06355 | 101.22908 | 24585 ft | 422 kts | 61° |
| 2026-05-07 08:50 | 14.07815 | 101.25532 | 24920 ft | 425 kts | 61° |
| 2026-05-07 08:50 | 14.09277 | 101.28159 | 25245 ft | 427 kts | 60° |
| 2026-05-07 08:50 | 14.10773 | 101.30849 | 25580 ft | 430 kts | 60° |
| 2026-05-07 08:51 | 14.12266 | 101.33534 | 25898 ft | 433 kts | 60° |
| 2026-05-07 08:51 | 14.13769 | 101.36226 | 26226 ft | 435 kts | 60° |
| 2026-05-07 08:51 | 14.15281 | 101.38935 | 26556 ft | 438 kts | 60° |
| 2026-05-07 08:51 | 14.16785 | 101.41642 | 26897 ft | 440 kts | 60° |
| 2026-05-07 08:52 | 14.18307 | 101.44392 | 27252 ft | 443 kts | 60° |
| 2026-05-07 08:52 | 14.19781 | 101.47054 | 27613 ft | 446 kts | 60° |
| 2026-05-07 08:52 | 14.21321 | 101.49832 | 27968 ft | 449 kts | 60° |
| 2026-05-07 08:52 | 14.22858 | 101.52604 | 28356 ft | 451 kts | 60° |
| 2026-05-07 08:53 | 14.24416 | 101.55415 | 28732 ft | 454 kts | 60° |
| 2026-05-07 08:53 | 14.25987 | 101.58249 | 29152 ft | 457 kts | 60° |
| 2026-05-07 08:53 | 14.27571 | 101.61106 | 29551 ft | 461 kts | 60° |
| 2026-05-07 08:53 | 14.29166 | 101.63980 | 29998 ft | 463 kts | 60° |
| 2026-05-07 08:54 | 14.30771 | 101.66893 | 30251 ft | 469 kts | 60° |
| 2026-05-07 08:54 | 14.32390 | 101.69820 | 30690 ft | 470 kts | 60° |
| 2026-05-07 08:54 | 14.33997 | 101.72727 | 31018 ft | 475 kts | 60° |
| 2026-05-07 08:54 | 14.35662 | 101.75732 | 31406 ft | 478 kts | 59° |
| 2026-05-07 08:55 | 14.37309 | 101.78707 | 31771 ft | 482 kts | 59° |
| 2026-05-07 08:55 | 14.38982 | 101.81731 | 32161 ft | 485 kts | 59° |
| 2026-05-07 08:55 | 14.40655 | 101.84758 | 32541 ft | 489 kts | 59° |
| 2026-05-07 08:55 | 14.42337 | 101.87808 | 32907 ft | 492 kts | 59° |
| 2026-05-07 08:56 | 14.44041 | 101.90894 | 33295 ft | 496 kts | 59° |
| 2026-05-07 08:56 | 14.45760 | 101.94005 | 33654 ft | 499 kts | 59° |
| 2026-05-07 08:56 | 14.47485 | 101.97127 | 33989 ft | 502 kts | 59° |
| 2026-05-07 08:56 | 14.49216 | 102.00266 | 34349 ft | 504 kts | 59° |
| 2026-05-07 08:57 | 14.50950 | 102.03412 | 34724 ft | 506 kts | 59° |
| 2026-05-07 08:57 | 14.52695 | 102.06579 | 35075 ft | 509 kts | 59° |
| 2026-05-07 08:57 | 14.54439 | 102.09751 | 35456 ft | 509 kts | 60° |
| 2026-05-07 08:57 | 14.56183 | 102.12942 | 35975 ft | 508 kts | 59° |
| 2026-05-07 08:58 | 14.57921 | 102.16101 | 36499 ft | 506 kts | 59° |
| 2026-05-07 08:58 | 14.59071 | 102.18185 | 36844 ft | 505 kts | 59° |
| 2026-05-07 08:58 | 14.60807 | 102.21331 | 37360 ft | 503 kts | 59° |
| 2026-05-07 08:58 | 14.62532 | 102.24463 | 37881 ft | 502 kts | 59° |
| 2026-05-07 08:59 | 14.64252 | 102.27597 | 38344 ft | 501 kts | 59° |
| 2026-05-07 08:59 | 14.65968 | 102.30722 | 38706 ft | 501 kts | 59° |
| 2026-05-07 08:59 | 14.69410 | 102.36997 | 38785 ft | 499 kts | 59° |
| 2026-05-07 09:00 | 14.72851 | 102.43267 | 38787 ft | 503 kts | 59° |
| 2026-05-07 09:00 | 14.76307 | 102.49564 | 38785 ft | 503 kts | 59° |
| 2026-05-07 09:01 | 14.79752 | 102.55851 | 38798 ft | 503 kts | 59° |
| 2026-05-07 09:01 | 14.83193 | 102.62138 | 38791 ft | 503 kts | 59° |
| 2026-05-07 09:02 | 14.86631 | 102.68426 | 38789 ft | 503 kts | 59° |
| 2026-05-07 09:02 | 14.90072 | 102.74725 | 38790 ft | 502 kts | 59° |
| 2026-05-07 09:03 | 14.93502 | 102.81009 | 38798 ft | 502 kts | 59° |
| 2026-05-07 09:03 | 14.96898 | 102.87237 | 38792 ft | 501 kts | 59° |
| 2026-05-07 09:04 | 15.00353 | 102.93574 | 38801 ft | 501 kts | 59° |
| 2026-05-07 09:04 | 15.03860 | 102.99789 | 38798 ft | 500 kts | 54° |
| 2026-05-07 09:05 | 15.08186 | 103.05401 | 38798 ft | 498 kts | 46° |
| 2026-05-07 09:05 | 15.12828 | 103.10708 | 38805 ft | 498 kts | 46° |
| 2026-05-07 09:06 | 15.17464 | 103.16062 | 38834 ft | 498 kts | 46° |
| 2026-05-07 09:06 | 15.22060 | 103.21360 | 38833 ft | 498 kts | 46° |
| 2026-05-07 09:07 | 15.26662 | 103.26655 | 38837 ft | 497 kts | 46° |
| 2026-05-07 09:07 | 15.31327 | 103.32047 | 38833 ft | 496 kts | 46° |
| 2026-05-07 09:08 | 15.35909 | 103.37333 | 38825 ft | 496 kts | 46° |
| 2026-05-07 09:08 | 15.40487 | 103.42619 | 38817 ft | 495 kts | 46° |
| 2026-05-07 09:09 | 15.45096 | 103.47945 | 38811 ft | 495 kts | 46° |
| 2026-05-07 09:09 | 15.49637 | 103.53196 | 38804 ft | 495 kts | 46° |
| 2026-05-07 09:10 | 15.54225 | 103.58506 | 38804 ft | 495 kts | 46° |
| 2026-05-07 09:10 | 15.58827 | 103.63839 | 38804 ft | 495 kts | 47° |
| 2026-05-07 09:11 | 15.63379 | 103.69139 | 38804 ft | 494 kts | 47° |
| 2026-05-07 09:11 | 15.68000 | 103.74480 | 38806 ft | 494 kts | 47° |
| 2026-05-07 09:12 | 15.72587 | 103.79796 | 38805 ft | 495 kts | 47° |
| 2026-05-07 09:12 | 15.77180 | 103.85131 | 38807 ft | 495 kts | 47° |
| 2026-05-07 09:13 | 15.81768 | 103.90466 | 38808 ft | 496 kts | 46° |
| 2026-05-07 09:13 | 15.86327 | 103.95767 | 38805 ft | 496 kts | 47° |
| 2026-05-07 09:14 | 15.90955 | 104.01159 | 38788 ft | 497 kts | 47° |
| 2026-05-07 09:14 | 15.95554 | 104.06544 | 38788 ft | 497 kts | 47° |
| 2026-05-07 09:15 | 16.00142 | 104.11871 | 38800 ft | 499 kts | 47° |
| 2026-05-07 09:15 | 16.04659 | 104.17132 | 38813 ft | 500 kts | 47° |
| 2026-05-07 09:16 | 16.09312 | 104.22509 | 38841 ft | 500 kts | 46° |
| 2026-05-07 09:16 | 16.13997 | 104.27858 | 38838 ft | 499 kts | 46° |
| 2026-05-07 09:17 | 16.18682 | 104.33187 | 38842 ft | 499 kts | 46° |
| 2026-05-07 09:17 | 16.23368 | 104.38536 | 38842 ft | 502 kts | 46° |
| 2026-05-07 09:18 | 16.28060 | 104.43902 | 38860 ft | 503 kts | 46° |
| 2026-05-07 09:18 | 16.32723 | 104.49314 | 38861 ft | 502 kts | 47° |
| 2026-05-07 09:19 | 16.37366 | 104.54719 | 38866 ft | 501 kts | 46° |
| 2026-05-07 09:19 | 16.41993 | 104.60099 | 38877 ft | 501 kts | 46° |
| 2026-05-07 09:20 | 16.46658 | 104.65526 | 38881 ft | 500 kts | 46° |
| 2026-05-07 09:20 | 16.51300 | 104.70929 | 38888 ft | 501 kts | 47° |
| 2026-05-07 09:21 | 16.55858 | 104.76381 | 38896 ft | 501 kts | 51° |
| 2026-05-07 09:21 | 16.59750 | 104.82399 | 38895 ft | 502 kts | 56° |
| 2026-05-07 09:22 | 16.63521 | 104.88514 | 38885 ft | 501 kts | 56° |
| 2026-05-07 09:22 | 16.67287 | 104.94605 | 38900 ft | 500 kts | 56° |
| 2026-05-07 09:23 | 16.71063 | 105.00741 | 38844 ft | 500 kts | 57° |
| 2026-05-07 09:23 | 16.74812 | 105.06835 | 38839 ft | 499 kts | 57° |
| 2026-05-07 09:24 | 16.78561 | 105.12936 | 38829 ft | 499 kts | 57° |
| 2026-05-07 09:24 | 16.82277 | 105.18989 | 38826 ft | 498 kts | 57° |
| 2026-05-07 09:25 | 16.86017 | 105.25085 | 38809 ft | 499 kts | 57° |
| 2026-05-07 09:25 | 16.89749 | 105.31183 | 38804 ft | 500 kts | 57° |
| 2026-05-07 09:26 | 16.93495 | 105.37311 | 38813 ft | 500 kts | 57° |
| 2026-05-07 09:26 | 16.97246 | 105.43452 | 38822 ft | 501 kts | 57° |
| 2026-05-07 09:27 | 17.00997 | 105.49598 | 38827 ft | 502 kts | 57° |
| 2026-05-07 09:28 | 17.06604 | 105.58796 | 38841 ft | 503 kts | 57° |
| 2026-05-07 09:28 | 17.10369 | 105.64980 | 38854 ft | 504 kts | 57° |
| 2026-05-07 09:29 | 17.14115 | 105.71150 | 38848 ft | 503 kts | 56° |
| 2026-05-07 09:29 | 17.17892 | 105.77353 | 38846 ft | 503 kts | 57° |
| 2026-05-07 09:30 | 17.21640 | 105.83522 | 38859 ft | 503 kts | 57° |
| 2026-05-07 09:30 | 17.25386 | 105.89695 | 38860 ft | 503 kts | 57° |
| 2026-05-07 09:31 | 17.29138 | 105.95894 | 38868 ft | 503 kts | 57° |
| 2026-05-07 09:31 | 17.32855 | 106.02047 | 38863 ft | 503 kts | 56° |
| 2026-05-07 09:32 | 17.36590 | 106.08208 | 38862 ft | 503 kts | 56° |
| 2026-05-07 09:32 | 17.40378 | 106.14374 | 38862 ft | 503 kts | 56° |
| 2026-05-07 09:33 | 17.44177 | 106.20510 | 38863 ft | 503 kts | 56° |
| 2026-05-07 09:33 | 17.47976 | 106.26674 | 38851 ft | 503 kts | 56° |
| 2026-05-07 09:34 | 17.51763 | 106.32830 | 38854 ft | 503 kts | 56° |
| 2026-05-07 09:34 | 17.55549 | 106.38998 | 38848 ft | 503 kts | 56° |
| 2026-05-07 09:35 | 17.59330 | 106.45164 | 38847 ft | 503 kts | 56° |
| 2026-05-07 09:35 | 17.63115 | 106.51322 | 38835 ft | 503 kts | 56° |
| 2026-05-07 09:36 | 17.66890 | 106.57477 | 38833 ft | 503 kts | 56° |
| 2026-05-07 09:36 | 17.70671 | 106.63659 | 38829 ft | 503 kts | 56° |
| 2026-05-07 09:37 | 17.74437 | 106.69844 | 38826 ft | 503 kts | 56° |
| 2026-05-07 09:37 | 17.78211 | 106.76044 | 38826 ft | 503 kts | 56° |
| 2026-05-07 09:38 | 17.81957 | 106.82201 | 38825 ft | 503 kts | 56° |
| 2026-05-07 09:38 | 17.85711 | 106.88377 | 38825 ft | 504 kts | 56° |
| 2026-05-07 09:39 | 17.89482 | 106.94584 | 38820 ft | 503 kts | 56° |
| 2026-05-07 09:39 | 17.93287 | 107.00812 | 38823 ft | 503 kts | 55° |
| 2026-05-07 09:40 | 17.97029 | 107.06934 | 38826 ft | 503 kts | 56° |
| 2026-05-07 09:40 | 18.00789 | 107.13098 | 38825 ft | 503 kts | 56° |
| 2026-05-07 09:41 | 18.04550 | 107.19270 | 38822 ft | 502 kts | 56° |
| 2026-05-07 09:41 | 18.08294 | 107.25423 | 38823 ft | 502 kts | 56° |
| 2026-05-07 09:42 | 18.11975 | 107.31486 | 38821 ft | 501 kts | 56° |
| 2026-05-07 09:42 | 18.15663 | 107.37565 | 38820 ft | 501 kts | 56° |
| 2026-05-07 09:43 | 18.19376 | 107.43694 | 38822 ft | 501 kts | 56° |
| 2026-05-07 09:43 | 18.22515 | 107.48877 | 38825 ft | 501 kts | 56° |
| 2026-05-07 09:44 | 18.26897 | 107.56120 | 38824 ft | 501 kts | 56° |
| 2026-05-07 09:44 | 18.30009 | 107.61269 | 38824 ft | 501 kts | 56° |
| 2026-05-07 09:45 | 18.33773 | 107.67444 | 38826 ft | 501 kts | 53° |
| 2026-05-07 09:45 | 18.35888 | 107.70366 | 38941 ft | 504 kts | 48° |
| 2026-05-07 09:45 | 18.38900 | 107.74151 | 38929 ft | 500 kts | 48° |
| 2026-05-07 09:46 | 18.42571 | 107.78813 | 38932 ft | 498 kts | 48° |
| 2026-05-07 09:46 | 18.47004 | 107.84452 | 38929 ft | 499 kts | 48° |
| 2026-05-07 09:47 | 18.51435 | 107.90087 | 38936 ft | 499 kts | 48° |
| 2026-05-07 09:47 | 18.55829 | 107.95681 | 38933 ft | 499 kts | 48° |
| 2026-05-07 09:48 | 18.60251 | 108.01314 | 38935 ft | 500 kts | 48° |
| 2026-05-07 09:48 | 18.64677 | 108.06957 | 38936 ft | 500 kts | 48° |
| 2026-05-07 09:49 | 18.69095 | 108.12595 | 38936 ft | 500 kts | 48° |
| 2026-05-07 09:49 | 18.73421 | 108.18120 | 38933 ft | 497 kts | 48° |
| 2026-05-07 09:50 | 18.77845 | 108.23730 | 38937 ft | 490 kts | 48° |
| 2026-05-07 09:50 | 18.82141 | 108.29203 | 38937 ft | 484 kts | 48° |
| 2026-05-07 09:51 | 18.86452 | 108.34748 | 38934 ft | 496 kts | 49° |
| 2026-05-07 09:51 | 18.90869 | 108.40448 | 38934 ft | 501 kts | 48° |
| 2026-05-07 09:52 | 18.95262 | 108.46098 | 38941 ft | 499 kts | 48° |
| 2026-05-07 09:52 | 18.99693 | 108.51787 | 38939 ft | 500 kts | 48° |
| 2026-05-07 09:53 | 19.04091 | 108.57440 | 38943 ft | 500 kts | 48° |
| 2026-05-07 09:53 | 19.08561 | 108.63192 | 38942 ft | 500 kts | 48° |
| 2026-05-07 09:54 | 19.12944 | 108.68836 | 38940 ft | 500 kts | 48° |
| 2026-05-07 09:54 | 19.17314 | 108.74470 | 38943 ft | 500 kts | 48° |
| 2026-05-07 09:55 | 19.21761 | 108.80208 | 38942 ft | 500 kts | 48° |
| 2026-05-07 09:55 | 19.26165 | 108.85894 | 38947 ft | 501 kts | 48° |
| 2026-05-07 09:56 | 19.30587 | 108.91609 | 38950 ft | 501 kts | 48° |
| 2026-05-07 09:56 | 19.35035 | 108.97364 | 38952 ft | 501 kts | 48° |
| 2026-05-07 09:57 | 19.39422 | 109.03044 | 38957 ft | 501 kts | 48° |
| 2026-05-07 09:57 | 19.43817 | 109.08740 | 38962 ft | 501 kts | 48° |
| 2026-05-07 09:58 | 19.48251 | 109.14485 | 38947 ft | 502 kts | 48° |
| 2026-05-07 09:58 | 19.52663 | 109.20225 | 38944 ft | 502 kts | 49° |
| 2026-05-07 09:59 | 19.57051 | 109.25985 | 38948 ft | 503 kts | 49° |
| 2026-05-07 09:59 | 19.61402 | 109.31713 | 38952 ft | 504 kts | 49° |
| 2026-05-07 10:00 | 19.65794 | 109.37496 | 38959 ft | 504 kts | 49° |
| 2026-05-07 10:00 | 19.70197 | 109.43297 | 38962 ft | 504 kts | 49° |
| 2026-05-07 10:01 | 19.74570 | 109.49070 | 38951 ft | 505 kts | 49° |
| 2026-05-07 10:01 | 19.78990 | 109.54917 | 38951 ft | 505 kts | 49° |
| 2026-05-07 10:02 | 19.83338 | 109.60649 | 38955 ft | 506 kts | 49° |
| 2026-05-07 10:02 | 19.87815 | 109.66565 | 38960 ft | 506 kts | 49° |
| 2026-05-07 10:03 | 19.92235 | 109.72416 | 38963 ft | 507 kts | 49° |
| 2026-05-07 10:03 | 19.96637 | 109.78251 | 38964 ft | 507 kts | 49° |
| 2026-05-07 10:04 | 20.01025 | 109.84071 | 38960 ft | 507 kts | 49° |
| 2026-05-07 10:04 | 20.05453 | 109.89952 | 38959 ft | 507 kts | 49° |
| 2026-05-07 10:05 | 20.09864 | 109.95814 | 38962 ft | 507 kts | 49° |
| 2026-05-07 10:05 | 20.14267 | 110.01673 | 38962 ft | 507 kts | 49° |
| 2026-05-07 10:06 | 20.18664 | 110.07529 | 38960 ft | 507 kts | 49° |
| 2026-05-07 10:06 | 20.23049 | 110.13376 | 38964 ft | 507 kts | 49° |
| 2026-05-07 10:07 | 20.27446 | 110.19244 | 38968 ft | 507 kts | 49° |
| 2026-05-07 10:07 | 20.31858 | 110.25124 | 38968 ft | 508 kts | 49° |
| 2026-05-07 10:08 | 20.36233 | 110.30828 | 38971 ft | 508 kts | 48° |
| 2026-05-07 10:08 | 20.40693 | 110.36643 | 38970 ft | 508 kts | 48° |
| 2026-05-07 10:09 | 20.45173 | 110.42505 | 38979 ft | 509 kts | 48° |
| 2026-05-07 10:09 | 20.47356 | 110.45465 | 38788 ft | 513 kts | 52° |
| 2026-05-07 10:09 | 20.49287 | 110.48594 | 38899 ft | 517 kts | 57° |
| 2026-05-07 10:10 | 20.52500 | 110.55484 | 38973 ft | 513 kts | 66° |
| 2026-05-07 10:10 | 20.54920 | 110.62654 | 38978 ft | 516 kts | 68° |
| 2026-05-07 10:11 | 20.57367 | 110.69858 | 38976 ft | 516 kts | 68° |
| 2026-05-07 10:11 | 20.59800 | 110.77066 | 38979 ft | 516 kts | 68° |
| 2026-05-07 10:12 | 20.62220 | 110.84269 | 38985 ft | 515 kts | 68° |
| 2026-05-07 10:12 | 20.64632 | 110.91460 | 38981 ft | 515 kts | 68° |
| 2026-05-07 10:13 | 20.67068 | 110.98667 | 38981 ft | 515 kts | 68° |
| 2026-05-07 10:13 | 20.69494 | 111.05832 | 38986 ft | 515 kts | 68° |
| 2026-05-07 10:14 | 20.71929 | 111.13044 | 38983 ft | 514 kts | 68° |
| 2026-05-07 10:14 | 20.74352 | 111.20240 | 38985 ft | 514 kts | 68° |
| 2026-05-07 10:15 | 20.76754 | 111.27378 | 38987 ft | 514 kts | 68° |
| 2026-05-07 10:15 | 20.79177 | 111.34594 | 38987 ft | 514 kts | 68° |
| 2026-05-07 10:16 | 20.81585 | 111.41774 | 38989 ft | 513 kts | 68° |
| 2026-05-07 10:16 | 20.83995 | 111.48971 | 38974 ft | 513 kts | 68° |
| 2026-05-07 10:17 | 20.86378 | 111.56054 | 38909 ft | 511 kts | 68° |
| 2026-05-07 10:17 | 20.88826 | 111.63278 | 38892 ft | 514 kts | 68° |
| 2026-05-07 10:18 | 20.91226 | 111.70388 | 38892 ft | 514 kts | 68° |
| 2026-05-07 10:18 | 20.93676 | 111.77658 | 38892 ft | 514 kts | 68° |
| 2026-05-07 10:19 | 20.96097 | 111.84860 | 38889 ft | 514 kts | 68° |
| 2026-05-07 10:19 | 20.98515 | 111.92062 | 38894 ft | 513 kts | 68° |
| 2026-05-07 10:20 | 21.00922 | 111.99241 | 38884 ft | 514 kts | 68° |
| 2026-05-07 10:20 | 21.03322 | 112.06412 | 38885 ft | 514 kts | 68° |
| 2026-05-07 10:21 | 21.05719 | 112.13585 | 38888 ft | 514 kts | 68° |
| 2026-05-07 10:21 | 21.08123 | 112.20791 | 38898 ft | 513 kts | 68° |
| 2026-05-07 10:22 | 21.10521 | 112.27989 | 38895 ft | 513 kts | 68° |
| 2026-05-07 10:22 | 21.12913 | 112.35180 | 38900 ft | 513 kts | 68° |
| 2026-05-07 10:23 | 21.15306 | 112.42387 | 38900 ft | 513 kts | 68° |
| 2026-05-07 10:23 | 21.17682 | 112.49556 | 38403 ft | 509 kts | 68° |
| 2026-05-07 10:23 | 21.18870 | 112.53143 | 37513 ft | 513 kts | 68° |
| 2026-05-07 10:24 | 21.20065 | 112.56750 | 36495 ft | 518 kts | 68° |
| 2026-05-07 10:24 | 21.21280 | 112.60420 | 35313 ft | 525 kts | 69° |
| 2026-05-07 10:24 | 21.22508 | 112.64134 | 34273 ft | 530 kts | 69° |
| 2026-05-07 10:24 | 21.23740 | 112.67865 | 33172 ft | 533 kts | 69° |
| 2026-05-07 10:25 | 21.24979 | 112.71588 | 32361 ft | 528 kts | 69° |
| 2026-05-07 10:25 | 21.26200 | 112.75270 | 31648 ft | 522 kts | 69° |
| 2026-05-07 10:25 | 21.27404 | 112.78943 | 30896 ft | 518 kts | 69° |
| 2026-05-07 10:25 | 21.28581 | 112.82552 | 30310 ft | 511 kts | 70° |
| 2026-05-07 10:26 | 21.29753 | 112.86140 | 29701 ft | 504 kts | 69° |
| 2026-05-07 10:26 | 21.30903 | 112.89647 | 29092 ft | 497 kts | 69° |
| 2026-05-07 10:26 | 21.32052 | 112.93143 | 28482 ft | 490 kts | 70° |
| 2026-05-07 10:26 | 21.33172 | 112.96564 | 27893 ft | 484 kts | 70° |
| 2026-05-07 10:27 | 21.34280 | 112.99934 | 28622 ft | 478 kts | 70° |
| 2026-05-07 10:27 | 21.35384 | 113.03271 | 26575 ft | 474 kts | 70° |
| 2026-05-07 10:27 | 21.36481 | 113.06632 | 25736 ft | 476 kts | 70° |
| 2026-05-07 10:27 | 21.37572 | 113.09980 | 25192 ft | 470 kts | 70° |
| 2026-05-07 10:28 | 21.39359 | 113.15455 | 24549 ft | 453 kts | 71° |
| 2026-05-07 10:28 | 21.40390 | 113.18622 | 23816 ft | 454 kts | 71° |
| 2026-05-07 10:28 | 21.41399 | 113.21717 | 23317 ft | 450 kts | 71° |
| 2026-05-07 10:29 | 21.42449 | 113.24939 | 22773 ft | 443 kts | 71° |
| 2026-05-07 10:29 | 21.43461 | 113.28050 | 22202 ft | 438 kts | 71° |
| 2026-05-07 10:29 | 21.44459 | 113.31117 | 21615 ft | 434 kts | 71° |
| 2026-05-07 10:30 | 21.46448 | 113.37234 | 20345 ft | 429 kts | 71° |
| 2026-05-07 10:30 | 21.47424 | 113.40238 | 19905 ft | 421 kts | 71° |
| 2026-05-07 10:30 | 21.48384 | 113.43198 | 19194 ft | 422 kts | 71° |
| 2026-05-07 10:30 | 21.49348 | 113.46168 | 18660 ft | 419 kts | 71° |
| 2026-05-07 10:31 | 21.50291 | 113.49079 | 18214 ft | 412 kts | 71° |
| 2026-05-07 10:31 | 21.51230 | 113.51978 | 17424 ft | 412 kts | 70° |
| 2026-05-07 10:31 | 21.52177 | 113.54891 | 16821 ft | 408 kts | 69° |
| 2026-05-07 10:31 | 21.53371 | 113.57601 | 16485 ft | 397 kts | 58° |
| 2026-05-07 10:32 | 21.54980 | 113.59977 | 15904 ft | 391 kts | 47° |
| 2026-05-07 10:32 | 21.56901 | 113.62043 | 15218 ft | 391 kts | 42° |
| 2026-05-07 10:32 | 21.58823 | 113.64049 | 14851 ft | 382 kts | 42° |
| 2026-05-07 10:32 | 21.60713 | 113.66050 | 14309 ft | 379 kts | 43° |
| 2026-05-07 10:33 | 21.62601 | 113.68053 | 13652 ft | 380 kts | 43° |
| 2026-05-07 10:33 | 21.64436 | 113.70009 | 13460 ft | 365 kts | 42° |
| 2026-05-07 10:33 | 21.66212 | 113.71883 | 13032 ft | 358 kts | 40° |
| 2026-05-07 10:33 | 21.68056 | 113.73698 | 12447 ft | 356 kts | 39° |
| 2026-05-07 10:34 | 21.69883 | 113.75446 | 12100 ft | 352 kts | 39° |
| 2026-05-07 10:34 | 21.71713 | 113.77203 | 11633 ft | 350 kts | 39° |
| 2026-05-07 10:34 | 21.73530 | 113.78959 | 11040 ft | 351 kts | 40° |
| 2026-05-07 10:34 | 21.75326 | 113.80708 | 10831 ft | 345 kts | 40° |
| 2026-05-07 10:35 | 21.77109 | 113.82450 | 10595 ft | 346 kts | 40° |
| 2026-05-07 10:35 | 21.78880 | 113.84185 | 10223 ft | 347 kts | 40° |
| 2026-05-07 10:35 | 21.80672 | 113.85930 | 9795 ft | 345 kts | 40° |
| 2026-05-07 10:35 | 21.82404 | 113.87625 | 9624 ft | 330 kts | 39° |
| 2026-05-07 10:36 | 21.84275 | 113.88926 | 9472 ft | 312 kts | 18° |
| 2026-05-07 10:36 | 21.86344 | 113.89329 | 9138 ft | 300 kts | 354° |
| 2026-05-07 10:36 | 21.88340 | 113.88811 | 8691 ft | 293 kts | 333° |
| 2026-05-07 10:36 | 21.90151 | 113.87858 | 8245 ft | 291 kts | 330° |
| 2026-05-07 10:37 | 21.91979 | 113.86908 | 7781 ft | 292 kts | 332° |
| 2026-05-07 10:37 | 21.93805 | 113.85991 | 7463 ft | 288 kts | 332° |
| 2026-05-07 10:37 | 21.95627 | 113.85081 | 7070 ft | 287 kts | 333° |
| 2026-05-07 10:37 | 21.97410 | 113.84195 | 6652 ft | 286 kts | 333° |
| 2026-05-07 10:38 | 21.99211 | 113.83290 | 6234 ft | 286 kts | 333° |
| 2026-05-07 10:38 | 22.01038 | 113.82377 | 5754 ft | 285 kts | 332° |
| 2026-05-07 10:38 | 22.02835 | 113.81484 | 5337 ft | 284 kts | 333° |
| 2026-05-07 10:38 | 22.04551 | 113.80645 | 4967 ft | 283 kts | 334° |
| 2026-05-07 10:39 | 22.06344 | 113.79776 | 4512 ft | 284 kts | 333° |
| 2026-05-07 10:39 | 22.08140 | 113.78885 | 4120 ft | 284 kts | 333° |
| 2026-05-07 10:39 | 22.09935 | 113.77989 | 3798 ft | 280 kts | 334° |
| 2026-05-07 10:39 | 22.11683 | 113.77110 | 3454 ft | 278 kts | 334° |
| 2026-05-07 10:40 | 22.13453 | 113.76222 | 2908 ft | 283 kts | 335° |
| 2026-05-07 10:40 | 22.15248 | 113.75320 | 2549 ft | 280 kts | 335° |
| 2026-05-07 10:40 | 22.16984 | 113.74454 | 2444 ft | 266 kts | 335° |
| 2026-05-07 10:40 | 22.18614 | 113.73642 | 2305 ft | 252 kts | 335° |
| 2026-05-07 10:41 | 22.20144 | 113.72880 | 2169 ft | 239 kts | 335° |
| 2026-05-07 10:41 | 22.21605 | 113.72141 | 2072 ft | 227 kts | 335° |
| 2026-05-07 10:41 | 22.23038 | 113.71574 | 2043 ft | 207 kts | 356° |
| 2026-05-07 10:41 | 22.24339 | 113.71851 | 2058 ft | 187 kts | 35° |
| 2026-05-07 10:42 | 22.25280 | 113.72752 | 2068 ft | 177 kts | 47° |
| 2026-05-07 10:42 | 22.26148 | 113.73683 | 2051 ft | 175 kts | 47° |
| 2026-05-07 10:42 | 22.27039 | 113.74576 | 2057 ft | 173 kts | 45° |
| 2026-05-07 10:42 | 22.27833 | 113.75516 | 2056 ft | 168 kts | 59° |
| 2026-05-07 10:43 | 22.28375 | 113.76620 | 2051 ft | 166 kts | 69° |
| 2026-05-07 10:43 | 22.28779 | 113.77784 | 2011 ft | 167 kts | 72° |
| 2026-05-07 10:43 | 22.29176 | 113.78945 | 1780 ft | 163 kts | 72° |
| 2026-05-07 10:43 | 22.29547 | 113.80107 | 1582 ft | 162 kts | 73° |
| 2026-05-07 10:44 | 22.29907 | 113.81226 | 1378 ft | 156 kts | 73° |
| 2026-05-07 10:44 | 22.30255 | 113.82288 | 1161 ft | 141 kts | 75° |
| 2026-05-07 10:44 | 22.30559 | 113.83275 | 990 ft | 139 kts | 75° |
| 2026-05-07 10:44 | 22.30868 | 113.84253 | 810 ft | 135 kts | 73° |
| 2026-05-07 10:45 | 22.31185 | 113.85180 | 649 ft | 135 kts | 73° |
| 2026-05-07 10:45 | 22.31484 | 113.86141 | 468 ft | 135 kts | 74° |
| 2026-05-07 10:45 | 22.31799 | 113.87086 | 237 ft | 134 kts | 71° |
| 2026-05-07 10:45 | 22.32089 | 113.87998 | 91 ft | 129 kts | 71° |
| 2026-05-07 10:46 | 22.32400 | 113.88913 | 55 ft | 132 kts | 73° |
| 2026-05-07 10:46 | 22.32652 | 113.89752 | 37 ft | 76 kts | 73° |
| 2026-05-07 10:46 | 22.32699 | 113.89953 | 37 ft | 0 kts | 85° |
| 2026-05-07 10:46 | 22.32701 | 113.90047 | 37 ft | 11 kts | 95° |
| 2026-05-07 10:47 | 22.32691 | 113.90135 | 37 ft | 12 kts | 99° |
| 2026-05-07 10:47 | 22.32662 | 113.90226 | 37 ft | 13 kts | 129° |
| 2026-05-07 10:47 | 22.32586 | 113.90288 | 37 ft | 14 kts | 159° |
| 2026-05-07 10:47 | 22.32485 | 113.90326 | 37 ft | 16 kts | 161° |
| 2026-05-07 10:48 | 22.32373 | 113.90367 | 37 ft | 18 kts | 161° |
| 2026-05-07 10:48 | 22.32248 | 113.90413 | 37 ft | 19 kts | 161° |
| 2026-05-07 10:48 | 22.32119 | 113.90461 | 37 ft | 20 kts | 161° |
| 2026-05-07 10:48 | 22.31984 | 113.90511 | 37 ft | 21 kts | 161° |
| 2026-05-07 10:49 | 22.31847 | 113.90562 | 37 ft | 21 kts | 160° |
| 2026-05-07 10:49 | 22.31720 | 113.90610 | 37 ft | 9 kts | 160° |
| 2026-05-07 10:49 | 22.31660 | 113.90633 | 37 ft | 5 kts | 153° |
| 2026-05-07 10:49 | 22.31645 | 113.90648 | 37 ft | 2 kts | 118° |
| 2026-05-07 10:50 | 22.31642 | 113.90660 | 37 ft | 1 kts | 76° |
| 2026-05-07 10:50 | 22.31668 | 113.90736 | 37 ft | 17 kts | 70° |
| 2026-05-07 10:50 | 22.31708 | 113.90857 | 37 ft | 18 kts | 71° |
| 2026-05-07 10:50 | 22.31747 | 113.90984 | 37 ft | 18 kts | 71° |
| 2026-05-07 10:51 | 22.31787 | 113.91111 | 37 ft | 18 kts | 71° |
| 2026-05-07 10:51 | 22.31831 | 113.91244 | 37 ft | 19 kts | 69° |
| 2026-05-07 10:51 | 22.31877 | 113.91376 | 37 ft | 19 kts | 71° |
| 2026-05-07 10:51 | 22.31918 | 113.91513 | 37 ft | 19 kts | 72° |
| 2026-05-07 10:52 | 22.31958 | 113.91648 | 37 ft | 19 kts | 72° |
| 2026-05-07 10:52 | 22.32003 | 113.91785 | 37 ft | 19 kts | 70° |
| 2026-05-07 10:52 | 22.32049 | 113.91921 | 37 ft | 19 kts | 70° |
| 2026-05-07 10:52 | 22.32093 | 113.92056 | 37 ft | 19 kts | 70° |
| 2026-05-07 10:53 | 22.32138 | 113.92195 | 37 ft | 19 kts | 71° |
| 2026-05-07 10:53 | 22.32181 | 113.92333 | 37 ft | 19 kts | 71° |
| 2026-05-07 10:53 | 22.32224 | 113.92471 | 37 ft | 19 kts | 70° |
| 2026-05-07 10:53 | 22.32262 | 113.92585 | 37 ft | 17 kts | 70° |
| 2026-05-07 10:54 | 22.32243 | 113.92670 | 37 ft | 10 kts | 150° |
| 2026-05-07 10:54 | 22.32164 | 113.92698 | 37 ft | 13 kts | 162° |
| 2026-05-07 10:54 | 22.32072 | 113.92730 | 39 ft | 14 kts | 161° |
| 2026-05-07 10:54 | 22.31971 | 113.92770 | 39 ft | 17 kts | 160° |
| 2026-05-07 10:55 | 22.31895 | 113.92800 | 37 ft | 1 kts | 159° |
| 2026-05-07 10:55 | 22.31870 | 113.92810 | 37 ft | 7 kts | 159° |
| 2026-05-07 10:55 | 22.31866 | 113.92812 | 37 ft | 0 kts | 159° |
| 2026-05-07 10:56 | 22.31862 | 113.92814 | 37 ft | 3 kts | 159° |
| 2026-05-07 10:57 | 22.31827 | 113.92826 | 37 ft | 7 kts | 176° |
| 2026-05-07 10:57 | 22.31788 | 113.92805 | 37 ft | 8 kts | 233° |
| 2026-05-07 10:57 | 22.31758 | 113.92731 | 37 ft | 14 kts | 250° |
| 2026-05-07 10:57 | 22.31725 | 113.92626 | 37 ft | 19 kts | 251° |
| 2026-05-07 10:58 | 22.31679 | 113.92501 | 37 ft | 14 kts | 222° |
| 2026-05-07 10:58 | 22.31634 | 113.92492 | 37 ft | 0 kts | 155° |
| 2026-05-07 10:58 | 22.31633 | 113.92493 | 37 ft | 2 kts | 155° |
| 2026-05-07 10:58 | 22.31598 | 113.92509 | 37 ft | 6 kts | 165° |
| 2026-05-07 10:59 | 22.31552 | 113.92506 | 37 ft | 1 kts | 201° |
| 2026-05-07 10:59 | 22.31536 | 113.92499 | 37 ft | 3 kts | 200° |
| 2026-05-07 10:59 | 22.31518 | 113.92491 | 37 ft | 0 kts | 206° |
| 2026-05-07 11:00 | 22.31697 | 113.92585 | 32 ft | 382 kts | 206° |